Time;durP1;ratioP1;P1;durP2;ratioP2;P2;SDS_P1;SDS_P2;PMS_P1;PMS_P2;Temp;Humidity;BMP_temperature;BMP_pressure;BME280_temperature;BME280_humidity;BME280_pressure;Samples;Min_cycle;Max_cycle;Signal;HPM_P1;HPM_P2
2023/07/17 00:00:25;;;;;;;12.80;9.43;;;;;;;23.21;79.25;94857.72;4914406;29;20667;-77
2023/07/17 00:02:53;;;;;;;13.30;9.02;;;;;;;23.22;79.06;94859.28;4914767;29;21502;-77
2023/07/17 00:05:20;;;;;;;11.65;9.13;;;;;;;23.24;79.11;94870.72;4914368;29;20205;-76
2023/07/17 00:07:47;;;;;;;13.00;11.50;;;;;;;23.25;79.33;94863.22;4914407;29;20592;-77
2023/07/17 00:10:13;;;;;;;14.35;9.18;;;;;;;23.21;79.33;94866.00;4914527;29;20628;-78
2023/07/17 00:12:42;;;;;;;12.48;11.15;;;;;;;23.28;78.82;94863.19;4914438;29;20220;-75
2023/07/17 00:15:09;;;;;;;10.98;9.35;;;;;;;23.26;78.57;94853.72;4914685;29;20212;-77
2023/07/17 00:17:37;;;;;;;12.20;9.73;;;;;;;23.23;78.47;94855.34;4914508;29;20212;-76
2023/07/17 00:20:11;;;;;;;14.93;8.52;;;;;;;23.23;78.15;94855.34;4913952;29;20648;-76
2023/07/17 00:22:38;;;;;;;12.30;9.07;;;;;;;23.20;78.25;94858.13;4914329;29;20208;-76
2023/07/17 00:25:05;;;;;;;11.25;8.15;;;;;;;23.19;78.30;94860.09;4914295;29;20604;-75
2023/07/17 00:27:35;;;;;;;13.90;9.25;;;;;;;23.16;78.34;94862.88;4914267;29;20220;-75
2023/07/17 00:30:02;;;;;;;10.70;8.30;;;;;;;23.13;78.45;94867.22;4914414;29;20236;-77
2023/07/17 00:32:28;;;;;;;13.43;9.32;;;;;;;23.13;78.42;94872.75;4914476;29;20212;-76
2023/07/17 00:34:55;;;;;;;13.85;8.20;;;;;;;23.16;76.26;94869.19;4913867;29;20208;-76
2023/07/17 00:37:23;;;;;;;11.27;7.97;;;;;;;23.23;75.79;94871.94;4913807;29;20577;-76
2023/07/17 00:39:51;;;;;;;11.93;8.38;;;;;;;23.20;75.13;94866.41;4913787;29;20236;-75
2023/07/17 00:42:18;;;;;;;15.13;7.50;;;;;;;23.27;74.27;94871.91;4914590;29;20207;-72
2023/07/17 00:44:45;;;;;;;14.35;7.97;;;;;;;23.20;74.65;94869.97;4913885;29;20261;-76
2023/07/17 00:47:12;;;;;;;7.82;6.45;;;;;;;23.22;73.77;94878.66;4913885;29;20212;-74
2023/07/17 00:49:40;;;;;;;10.55;7.13;;;;;;;23.17;72.91;94873.53;4913444;29;20322;-75
2023/07/17 00:52:10;;;;;;;9.75;6.78;;;;;;;23.21;72.61;94884.56;4913382;29;20222;-77
2023/07/17 00:54:41;;;;;;;10.02;6.93;;;;;;;23.11;73.23;94886.19;4913431;29;20565;-77
2023/07/17 00:57:09;;;;;;;10.65;7.18;;;;;;;23.00;73.84;94885.44;4913344;29;20323;-75
2023/07/17 00:59:36;;;;;;;12.13;7.32;;;;;;;22.89;74.00;94881.94;4913136;29;20239;-75
2023/07/17 01:02:03;;;;;;;13.52;7.20;;;;;;;22.86;73.91;94874.44;4913348;29;20204;-77
2023/07/17 01:04:29;;;;;;;12.40;7.43;;;;;;;22.84;73.68;94876.81;4913302;29;20208;-75
2023/07/17 01:06:56;;;;;;;11.25;7.60;;;;;;;22.74;74.05;94875.63;4913625;29;20205;-77
2023/07/17 01:09:23;;;;;;;13.65;7.57;;;;;;;22.70;74.37;94880.38;4907927;29;20224;-77
2023/07/17 01:11:51;;;;;;;12.77;6.68;;;;;;;22.73;74.01;94881.56;4913189;29;20204;-77
2023/07/17 01:14:19;;;;;;;11.60;6.85;;;;;;;22.68;73.88;94880.81;4913065;29;20215;-77
2023/07/17 01:16:47;;;;;;;8.60;7.00;;;;;;;22.58;74.21;94876.06;4913306;29;20205;-77
2023/07/17 01:19:14;;;;;;;8.63;6.95;;;;;;;22.58;74.70;94881.59;4917910;29;20303;-78
2023/07/17 01:21:46;;;;;;;10.93;7.70;;;;;;;22.54;75.51;94874.53;4912585;29;20651;-77
2023/07/17 01:24:15;;;;;;;15.60;7.38;;;;;;;22.46;76.24;94876.50;4924677;29;20211;-76
2023/07/17 01:26:41;;;;;;;10.13;7.18;;;;;;;22.43;76.96;94880.03;4923690;29;20271;-77
2023/07/17 01:29:08;;;;;;;9.13;7.25;;;;;;;22.45;76.83;94885.97;4916135;29;20260;-77
2023/07/17 01:31:35;;;;;;;9.93;6.55;;;;;;;22.36;76.61;94884.81;4923289;29;20211;-76
2023/07/17 01:34:03;;;;;;;12.63;6.43;;;;;;;22.27;76.14;94887.97;4922733;29;20218;-77
2023/07/17 01:36:30;;;;;;;13.85;7.60;;;;;;;22.26;76.86;94892.72;4921664;29;20229;-76
2023/07/17 01:38:57;;;;;;;10.13;6.55;;;;;;;22.29;76.42;94896.63;4913251;29;20252;-76
2023/07/17 01:41:25;;;;;;;10.63;6.80;;;;;;;22.29;76.97;94885.59;4921940;29;20541;-76
2023/07/17 01:43:52;;;;;;;9.38;7.13;;;;;;;22.41;76.05;94882.44;4920733;29;20575;-77
2023/07/17 01:46:19;;;;;;;9.80;6.20;;;;;;;22.29;76.43;94880.06;4912361;29;20227;-77
2023/07/17 01:48:46;;;;;;;13.35;7.07;;;;;;;22.15;76.27;94882.84;4917476;29;20273;-76
2023/07/17 01:51:13;;;;;;;10.40;7.65;;;;;;;22.09;76.64;94884.44;4925493;29;20267;-78
2023/07/17 01:53:39;;;;;;;11.20;7.47;;;;;;;22.10;76.13;94888.78;4916952;29;20260;-76
2023/07/17 01:56:06;;;;;;;8.00;6.43;;;;;;;22.00;76.50;94886.81;4913233;29;20251;-76
2023/07/17 01:58:34;;;;;;;10.10;7.18;;;;;;;22.06;76.62;94893.50;4915053;29;20211;-77
2023/07/17 02:01:01;;;;;;;8.93;6.30;;;;;;;22.07;76.24;94906.09;4920351;29;20553;-76
2023/07/17 02:03:28;;;;;;;8.40;6.60;;;;;;;22.05;76.38;94897.44;4914230;29;20259;-77
2023/07/17 02:05:56;;;;;;;11.35;7.05;;;;;;;22.03;75.80;94902.56;4924068;29;20290;-78
2023/07/17 02:08:22;;;;;;;9.57;6.18;;;;;;;22.12;75.09;94901.00;4921090;29;20260;-77
2023/07/17 02:10:51;;;;;;;10.52;6.15;;;;;;;22.07;74.50;94906.09;4915533;29;20275;-77
2023/07/17 02:13:18;;;;;;;10.80;6.13;;;;;;;22.04;73.99;94912.41;4912174;29;20660;-77
2023/07/17 02:15:46;;;;;;;8.15;6.40;;;;;;;21.94;74.63;94914.75;4921777;29;20219;-77
2023/07/17 02:18:13;;;;;;;9.55;6.03;;;;;;;21.85;75.17;94917.13;4923240;29;20760;-77
2023/07/17 02:20:40;;;;;;;7.82;6.00;;;;;;;21.76;74.94;94908.41;4919394;29;20244;-77
2023/07/17 02:23:07;;;;;;;9.88;6.40;;;;;;;21.65;75.31;94907.63;4923526;29;20200;-77
2023/07/17 02:25:34;;;;;;;8.07;6.60;;;;;;;21.66;75.22;94906.44;4926763;29;20635;-77
2023/07/17 02:28:00;;;;;;;10.32;6.72;;;;;;;21.61;75.16;94915.88;4920911;29;20205;-78
2023/07/17 02:30:27;;;;;;;10.38;5.43;;;;;;;21.65;74.79;94902.09;4917566;29;20252;-78
2023/07/17 02:32:55;;;;;;;11.65;5.85;;;;;;;21.51;75.40;94902.06;4921877;29;20211;-77
2023/07/17 02:35:22;;;;;;;7.57;5.93;;;;;;;21.56;74.89;94915.50;4924233;29;20223;-77
2023/07/17 02:37:49;;;;;;;9.68;5.65;;;;;;;21.54;74.57;94912.31;4919234;29;20307;-77
2023/07/17 02:40:16;;;;;;;10.88;6.57;;;;;;;21.44;75.17;94913.09;4916833;29;20603;-77
2023/07/17 02:42:43;;;;;;;9.38;6.05;;;;;;;21.37;75.21;94918.56;4928792;29;20207;-77
2023/07/17 02:45:10;;;;;;;13.02;6.05;;;;;;;21.36;75.63;94919.75;4921916;29;20212;-77
2023/07/17 02:47:37;;;;;;;10.20;5.90;;;;;;;21.36;76.77;94922.50;4916188;29;20296;-77
2023/07/17 02:50:07;;;;;;;12.20;6.63;;;;;;;21.39;76.97;94916.22;4925811;29;20369;-77
2023/07/17 02:52:36;;;;;;;8.27;6.32;;;;;;;21.41;77.56;94913.88;4910703;29;20203;-77
2023/07/17 02:55:04;;;;;;;10.13;6.25;;;;;;;21.37;78.33;94910.31;4916426;29;20264;-77
2023/07/17 02:57:33;;;;;;;10.25;6.45;;;;;;;21.30;80.26;94915.81;4926045;29;20259;-77
2023/07/17 03:00:00;;;;;;;11.82;7.57;;;;;;;21.32;80.87;94916.97;4922004;29;20278;-77
2023/07/17 03:02:27;;;;;;;13.43;8.23;;;;;;;21.30;82.17;94924.09;4923447;29;20204;-77
2023/07/17 03:04:54;;;;;;;13.63;8.40;;;;;;;21.35;83.46;94923.69;4916142;29;20196;-77
2023/07/17 03:07:22;;;;;;;10.98;8.38;;;;;;;21.24;84.29;94927.19;4924417;29;20603;-77
2023/07/17 03:09:49;;;;;;;12.45;8.40;;;;;;;21.22;84.87;94935.06;4922504;29;20223;-77
2023/07/17 03:12:15;;;;;;;11.98;8.85;;;;;;;21.17;85.96;94931.88;4919797;29;20235;-77
2023/07/17 03:14:42;;;;;;;12.63;9.73;;;;;;;21.28;87.23;94925.25;4919058;29;20204;-77
2023/07/17 03:17:09;;;;;;;13.07;9.48;;;;;;;21.55;86.63;94930.44;4928560;29;20211;-77
2023/07/17 03:19:36;;;;;;;15.00;9.32;;;;;;;21.93;85.48;94929.72;4918994;29;20248;-80
2023/07/17 03:22:03;;;;;;;15.32;9.57;;;;;;;22.36;79.15;94924.25;4916025;29;20240;-80
2023/07/17 03:24:31;;;;;;;13.13;9.43;;;;;;;22.88;81.54;94936.41;4926477;29;20208;-81
2023/07/17 03:26:58;;;;;;;16.83;10.73;;;;;;;23.43;75.92;94933.03;4914914;29;20204;-81
2023/07/17 03:29:26;;;;;;;14.52;10.52;;;;;;;23.97;72.87;94928.78;4917041;29;20215;-80
2023/07/17 03:31:53;;;;;;;11.55;8.18;;;;;;;24.32;70.49;94936.09;4914414;29;20350;-81
2023/07/17 03:34:20;;;;;;;12.25;9.50;;;;;;;24.21;73.77;94940.09;4924989;29;20209;-81
2023/07/17 03:36:47;;;;;;;15.00;9.85;;;;;;;24.60;73.11;94942.56;4915209;29;20196;-81
2023/07/17 03:39:13;;;;;;;13.48;9.95;;;;;;;24.85;71.61;94934.00;4915550;29;20223;-81
2023/07/17 03:41:41;;;;;;;11.73;8.93;;;;;;;25.28;65.18;94940.69;4914253;29;20656;-80
2023/07/17 03:44:08;;;;;;;13.43;10.57;;;;;;;26.08;65.20;94931.69;4915190;29;20196;-82
2023/07/17 03:46:35;;;;;;;15.52;11.30;;;;;;;26.85;63.88;94928.06;4910212;29;20200;-81
2023/07/17 03:49:02;;;;;;;15.75;11.35;;;;;;;27.64;61.53;94932.91;4914001;29;20201;-82
2023/07/17 03:51:29;;;;;;;9.88;8.27;;;;;;;28.12;59.58;94927.47;4914471;29;20347;-81
2023/07/17 03:53:55;;;;;;;12.57;10.13;;;;;;;28.67;58.23;94934.13;4914857;29;20204;-81
2023/07/17 03:56:22;;;;;;;14.02;8.73;;;;;;;28.86;56.15;94930.44;4916442;29;20232;-81
2023/07/17 03:58:50;;;;;;;13.40;9.90;;;;;;;29.36;51.95;94937.47;4919782;29;20505;-81
2023/07/17 04:01:17;;;;;;;12.75;11.30;;;;;;;29.96;55.46;94946.13;4910913;29;20248;-78
2023/07/17 04:03:44;;;;;;;12.90;10.45;;;;;;;30.36;53.96;94941.69;4914312;29;20553;-78
2023/07/17 04:06:10;;;;;;;14.27;11.27;;;;;;;30.27;54.50;94944.38;4926466;29;20759;-80
2023/07/17 04:08:37;;;;;;;16.90;10.65;;;;;;;30.56;53.67;94943.50;4914317;29;20726;-75
2023/07/17 04:11:04;;;;;;;12.23;10.90;;;;;;;31.33;51.20;94936.47;4917667;29;20196;-76
2023/07/17 04:13:31;;;;;;;12.95;10.32;;;;;;;32.05;48.60;94939.00;4914095;29;20631;-76
2023/07/17 04:16:01;;;;;;;11.63;10.35;;;;;;;32.44;47.90;94942.31;4914257;29;20201;-76
2023/07/17 04:18:28;;;;;;;14.20;10.57;;;;;;;32.41;48.08;94938.41;4928940;29;21564;-77
2023/07/17 04:20:55;;;;;;;16.50;10.93;;;;;;;32.79;47.15;94948.53;4913969;29;20240;-75
2023/07/17 04:23:21;;;;;;;12.68;9.48;;;;;;;33.34;44.81;94935.38;4922210;29;20211;-77
2023/07/17 04:25:50;;;;;;;14.93;10.02;;;;;;;33.59;43.79;94939.88;4922712;29;20212;-77
2023/07/17 04:28:16;;;;;;;15.73;9.55;;;;;;;33.61;43.27;94951.44;4919787;29;20212;-75
2023/07/17 04:30:43;;;;;;;11.05;8.63;;;;;;;34.34;41.79;94942.84;4912268;29;20255;-76
2023/07/17 04:33:11;;;;;;;10.38;9.02;;;;;;;34.04;41.99;94941.81;4921404;29;20195;-75
2023/07/17 04:35:39;;;;;;;10.05;8.18;;;;;;;34.47;40.74;94949.03;4919138;29;20209;-76
2023/07/17 04:38:06;;;;;;;10.88;8.57;;;;;;;34.57;41.23;94956.22;4912973;29;20212;-78
2023/07/17 04:40:33;;;;;;;9.35;8.23;;;;;;;34.43;40.63;94956.13;4915403;29;20275;-78
2023/07/17 04:43:00;;;;;;;11.93;8.45;;;;;;;34.91;39.67;94962.63;4925853;29;20207;-77
2023/07/17 04:45:27;;;;;;;8.68;7.50;;;;;;;34.12;39.59;94976.03;4916472;29;20291;-74
2023/07/17 04:47:54;;;;;;;8.98;7.35;;;;;;;34.34;39.82;94971.00;4912901;29;20256;-77
2023/07/17 04:50:25;;;;;;;10.23;7.78;;;;;;;33.41;41.12;94956.72;4920890;29;20208;-77
2023/07/17 04:52:52;;;;;;;11.88;7.68;;;;;;;34.25;39.51;94968.19;4911895;29;20199;-77
2023/07/17 04:55:20;;;;;;;11.77;8.27;;;;;;;33.61;40.76;94968.28;4913884;29;20621;-76
2023/07/17 04:57:47;;;;;;;10.15;8.30;;;;;;;35.22;39.02;94963.06;4912972;29;20200;-77
2023/07/17 05:00:15;;;;;;;10.98;8.50;;;;;;;35.45;38.47;94963.53;4909358;29;20232;-77
2023/07/17 05:02:44;;;;;;;11.60;8.95;;;;;;;36.16;37.41;94962.56;4912239;29;20208;-77
2023/07/17 05:05:12;;;;;;;14.40;8.43;;;;;;;35.60;38.57;94967.16;4912481;29;20231;-78
2023/07/17 05:07:42;;;;;;;9.93;7.90;;;;;;;36.37;37.75;94952.94;4912041;29;20410;-78
2023/07/17 05:10:10;;;;;;;11.30;8.95;;;;;;;36.83;35.62;94958.06;4912110;29;20664;-78
2023/07/17 05:12:37;;;;;;;15.07;9.55;;;;;;;36.55;35.78;94960.41;4914739;29;20303;-78
2023/07/17 05:15:05;;;;;;;13.23;8.98;;;;;;;36.79;35.66;94965.94;4911537;29;20252;-78
2023/07/17 05:17:31;;;;;;;9.70;8.55;;;;;;;36.98;35.17;94970.09;4912057;29;20212;-76
2023/07/17 05:19:58;;;;;;;10.82;8.60;;;;;;;37.43;35.22;94970.72;4909844;29;20205;-76
2023/07/17 05:22:26;;;;;;;10.88;8.98;;;;;;;37.31;35.41;94969.78;4911852;29;20236;-75
2023/07/17 05:24:54;;;;;;;12.50;7.28;;;;;;;35.57;35.90;94985.03;4912063;29;20204;-76
2023/07/17 05:27:21;;;;;;;9.80;7.13;;;;;;;35.72;35.56;94971.75;4911274;29;20224;-79
2023/07/17 05:29:47;;;;;;;11.85;8.68;;;;;;;34.73;37.79;94988.03;4911279;29;20208;-78
2023/07/17 05:32:14;;;;;;;11.25;7.88;;;;;;;34.39;38.18;94978.78;4912664;29;20204;-78
2023/07/17 05:34:41;;;;;;;10.73;7.93;;;;;;;35.42;37.50;94978.56;4911775;29;20208;-78
2023/07/17 05:37:08;;;;;;;14.57;8.68;;;;;;;36.35;35.52;94980.91;4911922;29;20621;-77
2023/07/17 05:39:34;;;;;;;12.77;8.50;;;;;;;34.52;38.65;94982.19;4911749;29;20200;-77
2023/07/17 05:42:03;;;;;;;9.05;7.10;;;;;;;34.30;37.04;94986.50;4911574;29;20614;-77
2023/07/17 05:44:30;;;;;;;8.73;6.30;;;;;;;34.91;36.70;94985.94;4914289;29;20600;-78
2023/07/17 05:46:56;;;;;;;8.27;6.63;;;;;;;35.22;36.64;94977.13;4912808;29;20201;-78
2023/07/17 05:49:23;;;;;;;10.13;7.88;;;;;;;34.28;37.53;94986.97;4921798;29;20263;-77
2023/07/17 05:51:50;;;;;;;11.43;7.97;;;;;;;34.26;37.86;94992.25;4919704;29;20201;-77
2023/07/17 05:54:17;;;;;;;10.38;7.63;;;;;;;35.40;36.74;94992.41;4916638;29;20622;-78
2023/07/17 05:56:43;;;;;;;8.70;7.40;;;;;;;36.75;34.88;94983.13;4916332;29;20204;-79
2023/07/17 05:59:11;;;;;;;11.57;8.18;;;;;;;36.65;34.08;94988.03;4924787;29;20214;-80
2023/07/17 06:01:39;;;;;;;11.95;7.78;;;;;;;35.70;36.27;94987.59;4909739;29;20263;-77
2023/07/17 06:04:06;;;;;;;12.50;7.82;;;;;;;35.25;36.37;94992.31;4914601;29;20299;-79
2023/07/17 06:06:33;;;;;;;8.65;7.57;;;;;;;35.88;35.65;94995.94;4927639;29;20208;-82
2023/07/17 06:09:02;;;;;;;10.00;7.03;;;;;;;36.09;35.42;94980.66;4924387;29;20280;-78
2023/07/17 06:11:29;;;;;;;9.52;7.47;;;;;;;34.51;36.85;95002.34;4922754;29;20326;-79
2023/07/17 06:13:56;;;;;;;11.80;7.60;;;;;;;35.68;35.17;94990.88;4916947;29;20204;-84
2023/07/17 06:16:24;;;;;;;12.77;7.35;;;;;;;36.90;34.48;94988.72;4914319;29;20268;-83
2023/07/17 06:18:51;;;;;;;11.35;7.45;;;;;;;35.52;35.88;94982.91;4917690;29;20208;-80
2023/07/17 06:21:17;;;;;;;8.93;6.82;;;;;;;36.40;35.35;94987.88;4911044;29;20251;-83
2023/07/17 06:23:44;;;;;;;11.05;7.93;;;;;;;36.04;35.30;94983.41;4913918;29;20212;-80
2023/07/17 06:26:14;;;;;;;12.73;7.07;;;;;;;35.97;35.70;94984.53;4911071;29;20277;-83
2023/07/17 06:28:41;;;;;;;8.52;6.97;;;;;;;37.01;34.02;94983.22;4908259;29;20299;-83
2023/07/17 06:31:08;;;;;;;9.10;7.05;;;;;;;38.61;32.00;94977.13;4911074;29;20645;-85
2023/07/17 06:33:36;;;;;;;10.05;7.68;;;;;;;38.35;31.94;94976.38;4911756;29;20205;-83
2023/07/17 06:36:03;;;;;;;10.95;7.55;;;;;;;39.09;31.64;94982.09;4911513;29;20225;-82
2023/07/17 06:38:30;;;;;;;10.73;7.88;;;;;;;37.80;32.95;94977.34;4912758;29;20295;-80
2023/07/17 06:40:57;;;;;;;8.45;7.05;;;;;;;38.41;33.49;94980.00;4911688;29;20232;-82
2023/07/17 06:43:23;;;;;;;10.15;7.57;;;;;;;37.52;32.72;94979.03;4915461;29;20252;-79
2023/07/17 06:45:50;;;;;;;10.27;7.97;;;;;;;38.04;32.38;94980.69;4920317;29;20209;-78
2023/07/17 06:48:17;;;;;;;10.48;8.10;;;;;;;38.21;32.06;94977.25;4917555;29;20204;-80
2023/07/17 06:50:45;;;;;;;17.40;8.48;;;;;;;36.59;34.38;94975.91;4921932;29;20208;-80
2023/07/17 06:53:12;;;;;;;10.20;7.47;;;;;;;36.81;33.78;94971.88;4917128;29;20272;-79
2023/07/17 06:55:39;;;;;;;11.38;8.45;;;;;;;36.89;34.48;94970.22;4910728;29;20228;-82
2023/07/17 06:58:06;;;;;;;12.55;8.75;;;;;;;36.67;35.07;94971.41;4911619;29;20200;-81
2023/07/17 07:00:33;;;;;;;11.70;9.55;;;;;;;36.09;36.36;94975.00;4910972;29;20213;-78
2023/07/17 07:02:59;;;;;;;12.85;10.20;;;;;;;36.84;35.62;94976.56;4912638;29;20432;-81
2023/07/17 07:05:26;;;;;;;11.15;8.93;;;;;;;37.34;35.23;94963.13;4914185;29;20276;-80
2023/07/17 07:07:54;;;;;;;11.63;9.70;;;;;;;37.78;33.69;94970.63;4914902;29;20544;-80
2023/07/17 07:10:21;;;;;;;14.07;9.75;;;;;;;38.06;33.08;94972.47;4914708;29;20277;-81
2023/07/17 07:12:48;;;;;;;13.43;9.32;;;;;;;37.42;33.86;94966.31;4914883;29;20209;-80
2023/07/17 07:15:15;;;;;;;12.93;8.82;;;;;;;38.33;33.05;94967.59;4914966;29;20209;-81
2023/07/17 07:17:41;;;;;;;11.98;9.50;;;;;;;37.33;33.87;94967.22;4914796;29;20672;-80
2023/07/17 07:20:10;;;;;;;14.98;9.95;;;;;;;37.01;34.34;94974.75;4914583;29;20720;-82
2023/07/17 07:22:36;;;;;;;14.95;9.13;;;;;;;37.34;34.95;94975.22;4914593;29;20252;-81
2023/07/17 07:25:05;;;;;;;12.50;9.98;;;;;;;38.47;32.64;94961.00;4914596;29;20208;-81
2023/07/17 07:27:32;;;;;;;13.00;9.82;;;;;;;38.58;32.55;94954.69;4914199;29;20572;-81
2023/07/17 07:29:59;;;;;;;9.88;8.70;;;;;;;39.03;32.48;94956.56;4914516;29;20607;-79
2023/07/17 07:32:26;;;;;;;14.13;8.90;;;;;;;37.43;34.33;94959.41;4912525;29;20560;-77
2023/07/17 07:34:53;;;;;;;12.25;9.10;;;;;;;37.22;34.00;94961.44;4914433;29;20592;-76
2023/07/17 07:37:20;;;;;;;12.65;9.38;;;;;;;36.09;36.01;94960.13;4911579;29;20205;-76
2023/07/17 07:39:46;;;;;;;16.90;11.55;;;;;;;35.01;37.88;94963.34;4914277;29;20208;-76
2023/07/17 07:42:16;;;;;;;13.40;9.88;;;;;;;35.71;36.99;94947.63;4913797;29;20749;-77
2023/07/17 07:44:43;;;;;;;15.30;10.43;;;;;;;35.78;36.83;94958.56;4913919;29;20684;-78
2023/07/17 07:47:10;;;;;;;14.20;10.52;;;;;;;37.02;35.38;94945.22;4913925;29;20200;-79
2023/07/17 07:49:37;;;;;;;12.73;9.52;;;;;;;37.28;35.53;94948.94;4911264;29;20695;-80
2023/07/17 07:52:04;;;;;;;12.82;9.80;;;;;;;36.07;36.28;94957.03;4913915;29;20211;-77
2023/07/17 07:54:30;;;;;;;11.73;10.07;;;;;;;35.74;37.26;94955.13;4913712;29;20224;-77
2023/07/17 07:56:57;;;;;;;15.55;11.85;;;;;;;35.79;38.43;94951.69;4913786;29;20215;-81
2023/07/17 07:59:25;;;;;;;15.60;9.98;;;;;;;35.71;36.26;94944.81;4913744;29;20627;-77
2023/07/17 08:01:52;;;;;;;11.32;9.05;;;;;;;36.12;36.80;94942.22;4913786;29;20236;-77
2023/07/17 08:04:19;;;;;;;13.88;9.50;;;;;;;34.29;38.94;94948.38;4913298;29;20692;-75
2023/07/17 08:06:46;;;;;;;15.05;9.80;;;;;;;33.64;40.63;94953.28;4912719;29;20252;-78
2023/07/17 08:09:13;;;;;;;16.52;9.43;;;;;;;33.60;42.16;94946.28;4913796;29;20205;-78
2023/07/17 08:11:40;;;;;;;15.32;10.50;;;;;;;34.40;39.22;94940.97;4913233;29;20234;-81
2023/07/17 08:14:06;;;;;;;14.88;10.38;;;;;;;35.20;37.61;94934.56;4912401;29;20201;-82
2023/07/17 08:16:35;;;;;;;14.50;10.40;;;;;;;35.30;37.92;94940.16;4910524;29;20265;-83
2023/07/17 08:19:01;;;;;;;13.90;11.13;;;;;;;34.23;39.23;94940.53;4913038;29;20211;-78
2023/07/17 08:21:28;;;;;;;13.35;9.63;;;;;;;34.91;38.81;94929.59;4912600;29;20240;-82
2023/07/17 08:23:55;;;;;;;12.80;9.68;;;;;;;35.63;37.57;94926.72;4913167;29;20205;-83
2023/07/17 08:26:22;;;;;;;13.38;9.68;;;;;;;36.70;36.77;94926.50;4912361;29;20205;-77
2023/07/17 08:28:48;;;;;;;10.90;9.75;;;;;;;36.07;36.31;94931.66;4912405;29;20205;-77
2023/07/17 08:31:15;;;;;;;13.45;9.50;;;;;;;34.65;38.72;94942.56;4912216;29;20297;-78
2023/07/17 08:33:44;;;;;;;17.63;9.27;;;;;;;34.66;39.04;94934.91;4913266;29;20230;-82
2023/07/17 08:36:10;;;;;;;14.00;9.98;;;;;;;35.04;38.34;94920.91;4913227;29;20664;-82
2023/07/17 08:38:37;;;;;;;12.55;9.50;;;;;;;33.67;40.29;94935.47;4913197;29;20268;-80
2023/07/17 08:41:04;;;;;;;15.45;9.32;;;;;;;33.74;41.76;94932.34;4913574;29;20216;-77
2023/07/17 08:43:31;;;;;;;15.27;9.80;;;;;;;33.92;40.49;94933.56;4913022;29;20747;-77
2023/07/17 08:45:59;;;;;;;14.15;10.05;;;;;;;33.88;41.58;94931.72;4912880;29;20213;-79
2023/07/17 08:48:27;;;;;;;15.07;10.27;;;;;;;33.43;41.00;94923.34;4913372;29;20311;-77
2023/07/17 08:50:57;;;;;;;16.15;10.57;;;;;;;32.90;41.98;94931.25;4913075;29;20481;-78
2023/07/17 08:53:25;;;;;;;14.07;9.50;;;;;;;33.78;40.85;94918.94;4912858;29;20295;-78
2023/07/17 08:55:55;;;;;;;14.18;10.60;;;;;;;33.82;41.11;94925.19;4912508;29;20224;-76
2023/07/17 08:58:23;;;;;;;15.70;10.32;;;;;;;33.02;41.70;94925.47;4912723;29;20205;-75
2023/07/17 09:00:51;;;;;;;13.40;9.93;;;;;;;33.52;40.96;94924.09;4912893;29;20212;-77
2023/07/17 09:03:19;;;;;;;11.98;10.20;;;;;;;34.26;39.28;94913.47;4913410;29;20267;-78
2023/07/17 09:05:46;;;;;;;12.82;9.52;;;;;;;34.26;39.42;94923.94;4912626;29;20739;-78
2023/07/17 09:08:14;;;;;;;13.52;9.93;;;;;;;34.01;39.40;94913.88;4913116;29;20624;-78
2023/07/17 09:10:41;;;;;;;13.63;9.13;;;;;;;34.67;39.55;94919.56;4912561;29;20219;-78
2023/07/17 09:13:07;;;;;;;11.25;9.38;;;;;;;34.67;38.89;94909.09;4913013;29;20216;-77
2023/07/17 09:15:35;;;;;;;20.98;8.73;;;;;;;34.63;39.26;94913.31;4912747;29;20268;-77
2023/07/17 09:18:03;;;;;;;11.95;9.30;;;;;;;35.03;37.60;94902.44;4913070;29;20204;-76
2023/07/17 09:20:30;;;;;;;11.55;8.75;;;;;;;34.69;38.76;94905.78;4912724;29;20288;-76
2023/07/17 09:23:00;;;;;;;13.00;8.88;;;;;;;34.23;38.65;94905.97;4913009;29;20232;-77
2023/07/17 09:25:30;;;;;;;13.30;8.68;;;;;;;33.95;39.54;94904.53;4911364;29;20207;-76
2023/07/17 09:27:57;;;;;;;9.70;8.70;;;;;;;33.71;38.66;94908.00;4911445;29;20249;-78
2023/07/17 09:30:25;;;;;;;11.27;9.00;;;;;;;34.38;37.87;94901.25;4912799;29;20300;-77
2023/07/17 09:32:53;;;;;;;12.75;8.35;;;;;;;34.14;37.74;94900.41;4912141;29;20204;-77
2023/07/17 09:35:23;;;;;;;12.68;8.27;;;;;;;34.36;37.83;94895.31;4912266;29;20641;-76
2023/07/17 09:37:50;;;;;;;9.40;7.80;;;;;;;34.50;36.20;94894.63;4910650;29;20380;-78
2023/07/17 09:40:19;;;;;;;11.85;7.97;;;;;;;35.19;35.34;94890.75;4912732;29;20212;-78
2023/07/17 09:42:56;;;;;;;9.43;7.75;;;;;;;34.53;36.14;94887.28;4912196;29;20236;-78
2023/07/17 09:45:25;;;;;;;10.55;8.10;;;;;;;34.12;37.70;94889.63;4912692;29;20211;-78
2023/07/17 09:47:52;;;;;;;8.73;7.75;;;;;;;34.71;35.59;94875.13;4911900;29;20223;-78
2023/07/17 09:50:22;;;;;;;10.02;7.65;;;;;;;35.30;36.34;94875.34;4912249;29;20615;-78
2023/07/17 09:52:50;;;;;;;8.90;7.03;;;;;;;34.80;36.02;94875.09;4912010;29;20208;-81
2023/07/17 09:55:20;;;;;;;9.23;6.95;;;;;;;35.47;34.59;94873.63;4912770;29;20315;-81
2023/07/17 09:57:49;;;;;;;9.18;7.45;;;;;;;34.81;35.13;94876.66;4905149;29;20224;-80
2023/07/17 10:00:21;;;;;;;9.07;7.32;;;;;;;35.03;36.11;94879.91;4911743;29;20303;-80
2023/07/17 10:02:56;;;;;;;10.10;7.78;;;;;;;34.52;36.00;94878.06;4912240;29;20370;-79
2023/07/17 10:05:24;;;;;;;11.93;7.32;;;;;;;34.87;34.63;94877.53;4912092;29;20260;-80
2023/07/17 10:07:52;;;;;;;10.40;7.03;;;;;;;34.78;33.38;94880.41;4912086;29;20723;-77
2023/07/17 10:10:19;;;;;;;9.52;6.53;;;;;;;34.91;33.70;94876.09;4911991;29;20218;-80
2023/07/17 10:12:48;;;;;;;8.48;7.07;;;;;;;35.21;34.43;94868.50;4912173;29;20259;-79
2023/07/17 10:15:15;;;;;;;9.15;7.28;;;;;;;34.22;34.85;94876.28;4912032;29;20231;-75
2023/07/17 10:17:42;;;;;;;9.55;7.45;;;;;;;34.40;34.70;94867.81;4912290;29;20299;-76
2023/07/17 10:20:11;;;;;;;11.82;7.97;;;;;;;34.14;36.76;94864.63;4912247;29;20216;-81
2023/07/17 10:22:43;;;;;;;11.05;8.57;;;;;;;34.03;36.59;94872.03;4911874;29;20232;-79
2023/07/17 10:25:11;;;;;;;10.93;8.57;;;;;;;33.85;34.73;94867.22;4912028;29;20334;-80
2023/07/17 10:27:40;;;;;;;10.55;8.23;;;;;;;34.14;35.41;94867.44;4911911;29;20209;-83
2023/07/17 10:33:07;;;;;;;8.90;7.72;;;;;;;33.76;35.49;94859.59;5106285;27;20550;-81
2023/07/17 10:35:47;;;;;;;11.40;7.25;;;;;;;34.38;32.63;94850.63;5092057;28;20602;-85
2023/07/17 10:38:16;;;;;;;13.63;7.53;;;;;;;35.18;32.64;94849.75;5106069;28;20204;-89
2023/07/17 10:40:43;;;;;;;10.35;6.90;;;;;;;35.61;33.20;94844.69;5096457;28;20283;-82
2023/07/17 10:43:14;;;;;;;8.07;7.00;;;;;;;35.42;33.21;94840.47;5106237;28;20210;-85
2023/07/17 10:45:41;;;;;;;13.45;7.78;;;;;;;35.91;32.82;94837.78;5096874;28;20225;-85
2023/07/17 10:48:10;;;;;;;9.45;7.25;;;;;;;36.17;33.93;94845.63;5099372;28;20213;-79
2023/07/17 10:50:38;;;;;;;10.25;8.00;;;;;;;34.82;33.71;94847.25;5094562;28;20316;-79
2023/07/17 10:53:05;;;;;;;9.50;7.53;;;;;;;34.36;34.42;94841.88;5105395;28;20302;-75
2023/07/17 10:55:32;;;;;;;11.10;7.47;;;;;;;34.21;34.68;94835.34;5096141;28;20226;-79
2023/07/17 10:58:01;;;;;;;8.95;7.47;;;;;;;34.12;34.41;94841.03;5088177;28;20660;-78
2023/07/17 11:00:28;;;;;;;8.02;6.72;;;;;;;34.82;35.24;94844.44;5096296;28;20216;-83
2023/07/17 11:02:56;;;;;;;9.20;6.97;;;;;;;35.21;32.83;94833.94;5086436;28;20297;-80
2023/07/17 11:05:24;;;;;;;8.95;7.28;;;;;;;34.97;32.91;94830.38;5086881;28;20211;-83
2023/07/17 11:07:51;;;;;;;8.20;7.22;;;;;;;34.79;31.80;94836.94;5085087;28;20210;-85
2023/07/17 11:10:18;;;;;;;8.73;7.20;;;;;;;35.38;32.70;94826.59;5084857;28;20207;-85
2023/07/17 11:12:45;;;;;;;10.55;6.97;;;;;;;35.84;30.33;94834.56;5084492;28;20234;-80
2023/07/17 11:15:16;;;;;;;8.07;7.13;;;;;;;36.12;31.53;94827.34;5085392;28;20680;-83
2023/07/17 11:17:43;;;;;;;8.05;6.82;;;;;;;35.98;30.59;94817.63;5084730;28;20264;-81
2023/07/17 11:20:11;;;;;;;7.65;6.80;;;;;;;35.44;30.31;94821.81;5084970;28;20259;-81
2023/07/17 11:22:40;;;;;;;8.30;6.88;;;;;;;34.64;31.52;94819.97;5084915;28;20279;-81
2023/07/17 11:25:09;;;;;;;8.15;6.13;;;;;;;35.31;29.84;94817.72;5085499;28;20214;-80
2023/07/17 11:27:36;;;;;;;6.30;5.70;;;;;;;35.55;30.80;94807.13;5084608;28;20571;-79
2023/07/17 11:30:04;;;;;;;9.07;6.15;;;;;;;34.73;30.75;94805.03;5085501;28;20206;-75